Red Fish — WDF3926 — position and weather

sailwx.info

Track history (hours):
 
Tides and Currents Weather Stations Pressure Air Temp Water Temp Dewpoint Dewpoint Depression Visibility Wind Speed Wind Dir Waves Ship Positions

Red Fish

Owner: Higman Barge Lines, Inc 1980 Post Oak Blvd., Suite 1101 Houston, Texas 77056, Orange, TX. More information available from US FCC via Universal Licensing System and Coast Guard Vessel Documentation Center.

Last reported at 2015-Jul-31 18:06 UTC. Time now 2015-Aug-03 06:35 UTC.
Position N 29°23' W 094°46'.

Length 26 m; draft 2.9 m.

Type: Towing. MMSI: 367445690.

Date/timePositionNaut miles runAvg speedWind from/ knotsBaromVisibWave heightAir tempDewpointWater temp
2015-Jul-31 18:06N 29°23' W 094°46'25 4.2
2015-Jul-31 12:13N 29°09' W 095°10'2 3.3
2015-Jul-31 11:33N 29°07' W 095°11'20 0.9
2015-Jul-30 14:18N 28°52' W 095°27'6 6.2
2015-Jul-30 13:20N 28°49' W 095°32'4 5.5
2015-Jul-30 12:33N 28°47' W 095°36'6 5.2
2015-Jul-30 11:28N 28°45' W 095°42'5 4.7
2015-Jul-30 10:23N 28°45' W 095°48'5 5.4
2015-Jul-30 09:26N 28°43' W 095°54'4 4.0
2015-Jul-30 08:33N 28°41' W 095°57'0 0.0
2015-Jul-30 07:34N 28°41' W 095°57'2 2.2
2015-Jul-30 06:33N 28°40' W 095°60'0 0.0
2015-Jul-30 04:33N 28°40' W 095°60'  
2015-Jul-26 04:28N 29°22' W 094°49'1 0.0
2015-Jul-24 19:26N 29°21' W 094°49'0 0.0
2015-Jul-24 17:19N 29°21' W 094°49'0 0.0
2015-Jul-24 14:11N 29°21' W 094°49'0 0.0
2015-Jul-24 13:33N 29°21' W 094°49'0 0.0
2015-Jul-24 10:27N 29°21' W 094°49'0 0.0
2015-Jul-24 09:34N 29°21' W 094°49'0 0.5
2015-Jul-24 08:32N 29°22' W 094°49'6 1.9
2015-Jul-24 05:32N 29°22' W 094°55'0 0.0
2015-Jul-23 01:33N 29°22' W 094°55'0 0.0
2015-Jul-23 00:32N 29°22' W 094°55'  
Track history (hours):
 
Tides and Currents Weather Stations Pressure Air Temp Water Temp Dewpoint Dewpoint Depression Visibility Wind Speed Wind Dir Waves Ship Positions

Red Fish

Owner: Higman Barge Lines, Inc 1980 Post Oak Blvd., Suite 1101 Houston, Texas 77056, Orange, TX. More information available from US FCC via Universal Licensing System and Coast Guard Vessel Documentation Center.

Last reported at 2015-Jul-31 18:06 UTC. Time now 2015-Aug-03 06:35 UTC.
Position N 29°23' W 094°46'.

Length 26 m; draft 2.9 m.

Type: Towing. MMSI: 367445690.

Date/timePositionNaut miles runAvg speedWind from/ knotsBaromVisibWave heightAir tempDewpointWater temp
2015-Jul-31 18:06N 29°23' W 094°46'25 4.2
2015-Jul-31 12:13N 29°09' W 095°10'2 3.3
2015-Jul-31 11:33N 29°07' W 095°11'20 0.9
2015-Jul-30 14:18N 28°52' W 095°27'6 6.2
2015-Jul-30 13:20N 28°49' W 095°32'4 5.5
2015-Jul-30 12:33N 28°47' W 095°36'6 5.2
2015-Jul-30 11:28N 28°45' W 095°42'5 4.7
2015-Jul-30 10:23N 28°45' W 095°48'5 5.4
2015-Jul-30 09:26N 28°43' W 095°54'4 4.0
2015-Jul-30 08:33N 28°41' W 095°57'0 0.0
2015-Jul-30 07:34N 28°41' W 095°57'2 2.2
2015-Jul-30 06:33N 28°40' W 095°60'0 0.0
2015-Jul-30 04:33N 28°40' W 095°60'  
2015-Jul-26 04:28N 29°22' W 094°49'1 0.0
2015-Jul-24 19:26N 29°21' W 094°49'0 0.0
2015-Jul-24 17:19N 29°21' W 094°49'0 0.0
2015-Jul-24 14:11N 29°21' W 094°49'0 0.0
2015-Jul-24 13:33N 29°21' W 094°49'0 0.0
2015-Jul-24 10:27N 29°21' W 094°49'0 0.0
2015-Jul-24 09:34N 29°21' W 094°49'0 0.5
2015-Jul-24 08:32N 29°22' W 094°49'6 1.9
2015-Jul-24 05:32N 29°22' W 094°55'0 0.0
2015-Jul-23 01:33N 29°22' W 094°55'0 0.0
2015-Jul-23 00:32N 29°22' W 094°55'  

Dump ship's entire track history